Hovedside
METAR-TAF:

METAR-TAF

Lufthavner :

Lusaka internasjonale lufthavn

Lusaka, Zambia

breddegrad: 15-19-51S, lengdegrad: 028-27-09E, høyde over havet: 1152 m

Gjeldene værobservasjon

Denne rapporten ble laget for 4 timer og 55 minutter siden, klokken 11:00 UTC
Vind 10 kt fra Øst-nordøst
Temperatur 24°C
Luftfuktighet 31%
Trykk 1023 hPa
Sikt 10 km eller mer
ingen skyer under 1500 m og ingen bygeskyer

METAR: FLKK 191100Z 07010KT CAVOK 24/06 Q1023 NOSIG

Tid: 17:55 (15:55 UTC)


TAF: fraværende

Værobservasjoner og værvarsel for over 4000 flyplasser (METAR- og TAF-rapporter).

Tilgjengelige stasjoner er representert av de røde og gule prikkene på kartet.

Hold musepekeren over prikken for å se navnet på stasjonen.

Klikk så for å se værobservasjoner og -varsler.

For å forandre kartet kan du klikke på den grønne knappen med svart kryss for å zoome inn, på den grønne knappen med strek for å zoome ut, eller på de grønne pilene for å se tilstøtende kart.


METAR-TAF: